CVF2 weather

Fergus (Vodarek Field)
Ontario, Canada

Public forecast

Using degrees Celsius for public forecast. Weather courtesy of forecast.io.

METAR (pilot weather report)

Closest report is Waterloo Airport, 16.2 nm (30.1 km) SSW. Retrieved 2019/05/24 17:00 UTC (1 hour ago):

CYKF 241700Z AUTO 33004KT 260V360 9SM SCT024 16/11 A3013 RMK SLP207 DENSITY ALT 1100FT

TAF (pilot weather forecast)

Closest forecast is Waterloo Airport, 16.2 nm (30.1 km) SSW. Retrieved 2019/05/24 14:42 UTC (4 hours ago):

TAF CYKF 241339Z 2414/2502 33010KT P6SM BKN015 TEMPO 2414/2417 SCT015 FM241700 33007KT P6SM FEW020 BKN030 FM242300 VRB03KT P6SM FEW030 RMK FCST BASED ON AUTO OBS. NXT FCST BY 242000Z